KDDH

William H Morse State Airport

Bennington, Vermont, USA
METAR KDDH 210354Z AUTO 08004KT 10SM BKN055 18/14 A3017 RMK AO2 SLP213 T01780144
Observed Flight Rules
Aug-21 @ 03:54 UTC (16 minutes ago) Visual Flight Rules
Wind Visibility Clouds
80° at 4 knots 10 miles
  • Broken at 5,500' AGL
Temperatures Readings
Current 18°C / 64°F
Dewpoint 14°C / 57°F
Humidity 78%
Altimeter 30.17" Hg
Pressure 1021.3 hPa
Elevation 244
METAR KDDH 210354Z AUTO 08004KT 10SM BKN055 18/14 A3017 RMK AO2 SLP213 T01780144
Observed Flight Rules
Aug-21 @ 03:54 UTC
(16 minutes ago)
VFR
Wind Visibility
80° at 4 knots 10 miles
Clouds
  • Broken at 5,500' AGL
Temperature Dewpoint
18°C / 64°F 14°C / 57°F
Humidity Altimeter Pressure
78% 30.17" Hg 1021.3 hPa